createdAt,value
2018-12-09T00:02:02.543Z,98270.44
2018-12-09T00:04:31.248Z,98270.25
2018-12-09T00:07:00.077Z,98124.12
2018-12-09T00:09:29.036Z,98267.29
2018-12-09T00:11:57.687Z,98269.78
2018-12-09T00:14:26.851Z,98258.67
2018-12-09T00:16:56.254Z,98260.32
2018-12-09T00:19:25.218Z,98259.02
2018-12-09T00:21:53.837Z,98254.86
2018-12-09T00:24:22.520Z,98252.62
2018-12-09T00:26:51.359Z,98251.70
2018-12-09T00:29:20.040Z,98251.23
2018-12-09T00:31:48.748Z,98250.20
2018-12-09T00:34:17.676Z,98248.83
2018-12-09T00:36:46.506Z,98253.22
2018-12-09T00:39:15.364Z,98256.34
2018-12-09T00:41:44.316Z,98258.66
2018-12-09T00:44:12.983Z,98253.72
2018-12-09T00:46:42.470Z,98246.67
2018-12-09T00:49:11.355Z,98250.13
2018-12-09T00:51:40.151Z,98252.75
2018-12-09T00:54:08.942Z,98254.87
2018-12-09T00:56:37.910Z,98248.52
2018-12-09T00:59:06.591Z,98248.37
2018-12-09T01:01:35.409Z,98253.00
2018-12-09T01:04:04.203Z,98250.06
2018-12-09T01:06:32.894Z,98252.33
2018-12-09T01:09:01.593Z,98252.64
2018-12-09T01:11:30.508Z,98255.71
2018-12-09T01:13:59.388Z,98255.02
2018-12-09T01:16:28.262Z,98160.09
2018-12-09T01:18:57.121Z,98257.36
2018-12-09T01:21:25.877Z,98251.70
2018-12-09T01:23:54.595Z,98243.33
2018-12-09T01:26:23.524Z,98242.97
2018-12-09T01:28:52.288Z,98251.34
2018-12-09T01:31:20.989Z,98247.91
2018-12-09T01:33:49.644Z,98248.17
2018-12-09T01:36:18.667Z,98251.50
2018-12-09T01:38:47.517Z,98243.70
2018-12-09T01:41:16.267Z,98245.78
2018-12-09T01:43:45.224Z,98242.71
2018-12-09T01:46:13.840Z,98243.54
2018-12-09T01:48:43.006Z,98245.31
2018-12-09T01:51:11.834Z,98246.14
2018-12-09T01:54:12.601Z,98242.97
2018-12-09T01:56:41.429Z,98250.88
2018-12-09T01:59:10.068Z,98246.77
2018-12-09T02:01:38.853Z,98240.63
2018-12-09T02:04:07.715Z,98247.36
2018-12-09T02:06:36.964Z,98239.19
2018-12-09T02:09:08.111Z,98248.19
2018-12-09T02:11:37.398Z,98246.89
2018-12-09T02:14:06.466Z,98248.19
2018-12-09T02:16:35.803Z,98250.32
2018-12-09T02:19:18.917Z,98251.77
2018-12-09T02:21:47.901Z,98250.22
2018-12-09T02:24:17.383Z,98241.94
2018-12-09T02:26:46.325Z,98245.13
2018-12-09T02:29:15.265Z,98244.91
2018-12-09T02:31:44.452Z,98242.42
2018-12-09T02:34:13.060Z,98240.19
2018-12-09T02:36:41.755Z,98245.65
2018-12-09T02:39:11.815Z,98244.92
2018-12-09T02:41:40.479Z,98239.14
2018-12-09T02:44:09.285Z,98245.88
2018-12-09T02:46:38.275Z,98241.97
2018-12-09T02:49:06.981Z,98245.65
2018-12-09T02:51:35.696Z,98251.08
2018-12-09T02:54:04.672Z,98251.80
2018-12-09T02:56:33.481Z,98249.45
2018-12-09T02:59:02.423Z,98256.19
2018-12-09T03:01:31.225Z,98254.53
2018-12-09T03:03:59.849Z,98257.38
2018-12-09T03:06:28.597Z,98261.91
2018-12-09T03:08:57.247Z,98268.88
2018-12-09T03:11:25.945Z,98267.11
2018-12-09T03:13:54.680Z,98271.60
2018-12-09T03:16:23.508Z,98271.34
2018-12-09T03:18:52.221Z,98271.97
2018-12-09T03:21:20.975Z,98271.50
2018-12-09T03:23:49.622Z,98266.29
2018-12-09T03:26:18.697Z,98267.12
2018-12-09T03:28:47.371Z,98257.55
2018-12-09T03:31:16.275Z,98262.86
2018-12-09T03:33:45.156Z,98266.41
2018-12-09T03:36:15.035Z,98268.80
2018-12-09T03:38:43.824Z,98269.16
2018-12-09T03:41:12.670Z,98275.67
2018-12-09T03:43:41.455Z,98274.84
2018-12-09T03:46:10.134Z,98269.06
2018-12-09T03:48:39.134Z,98274.99
2018-12-09T03:51:08.112Z,98271.89
2018-12-09T03:53:37.017Z,98276.98
2018-12-09T03:56:05.743Z,98276.05
2018-12-09T03:58:34.742Z,98276.98
2018-12-09T04:01:03.487Z,98276.88
2018-12-09T04:03:32.273Z,98280.42
2018-12-09T04:06:01.331Z,98278.19
2018-12-09T04:08:30.128Z,98279.59
2018-12-09T04:10:59.106Z,98280.68
2018-12-09T04:13:27.926Z,98252.35
2018-12-09T04:15:57.343Z,98284.34
2018-12-09T04:18:26.265Z,98279.73
2018-12-09T04:20:54.977Z,98290.16
2018-12-09T04:23:23.962Z,98290.98
2018-12-09T04:25:52.783Z,98291.30
2018-12-09T04:28:21.648Z,98290.62
2018-12-09T04:30:50.471Z,98296.88
2018-12-09T04:33:19.737Z,98302.81
2018-12-09T04:35:48.613Z,98302.45
2018-12-09T04:38:17.861Z,98299.73
2018-12-09T04:40:46.976Z,98308.02
2018-12-09T04:43:15.796Z,98303.86
2018-12-09T04:45:44.530Z,98310.51
2018-12-09T04:48:13.315Z,98315.58
2018-12-09T04:50:42.322Z,98314.78
2018-12-09T04:53:11.198Z,98315.25
2018-12-09T04:55:39.979Z,98315.25
2018-12-09T04:58:08.662Z,98321.98
2018-12-09T05:00:58.106Z,98323.63
2018-12-09T05:03:27.081Z,98325.14
2018-12-09T05:05:55.931Z,98330.03
2018-12-09T05:08:24.841Z,98333.58
2018-12-09T05:10:53.683Z,98344.00
2018-12-09T05:13:22.540Z,98340.56
2018-12-09T05:15:51.175Z,98344.47
2018-12-09T05:18:19.902Z,98339.05
2018-12-09T05:20:48.767Z,98334.22
2018-12-09T05:23:17.612Z,98341.56
2018-12-09T05:25:46.279Z,98343.55
2018-12-09T05:28:14.932Z,98344.75
2018-12-09T05:30:43.728Z,98349.13
2018-12-09T05:33:12.384Z,98346.05
2018-12-09T05:35:41.336Z,98346.67
2018-12-09T05:38:09.974Z,98348.29
2018-12-09T05:40:39.009Z,98346.05
2018-12-09T05:43:07.642Z,98352.09
2018-12-09T05:45:36.409Z,98349.95
2018-12-09T05:48:05.074Z,98343.92
2018-12-09T05:50:33.836Z,98353.97
2018-12-09T05:53:02.462Z,98357.76
2018-12-09T05:55:31.518Z,98355.98
2018-12-09T05:58:00.235Z,98358.96
2018-12-09T06:00:28.837Z,98369.95
2018-12-09T06:02:58.358Z,98362.39
2018-12-09T06:05:27.054Z,98369.95
2018-12-09T06:07:55.845Z,98363.23
2018-12-09T06:10:24.538Z,98369.27
2018-12-09T06:12:53.481Z,98364.28
2018-12-09T06:15:22.384Z,98364.43
2018-12-09T06:17:51.159Z,98365.13
2018-12-09T06:20:19.956Z,98366.20
2018-12-09T06:22:48.695Z,98362.77
2018-12-09T06:25:17.374Z,98363.24
2018-12-09T06:27:47.090Z,98361.69
2018-12-09T06:30:16.442Z,98363.91
2018-12-09T06:32:45.434Z,98370.33
2018-12-09T06:35:14.065Z,98372.83
2018-12-09T06:37:42.715Z,98378.30
2018-12-09T06:40:11.413Z,98381.47
2018-12-09T06:42:40.064Z,98377.36
2018-12-09T06:45:09.337Z,98388.45
2018-12-09T06:47:38.786Z,98382.66
2018-12-09T06:50:10.705Z,98386.11
2018-12-09T06:52:40.060Z,98389.44
2018-12-09T06:55:10.157Z,98387.16
2018-12-09T06:57:39.350Z,98395.81
2018-12-09T07:00:09.879Z,98399.40
2018-12-09T07:02:38.805Z,98387.31
2018-12-09T07:05:08.796Z,98391.34
2018-12-09T07:07:37.867Z,98387.06
2018-12-09T07:10:08.853Z,98396.08
2018-12-09T07:12:38.053Z,98390.50
2018-12-09T07:15:07.468Z,98393.26
2018-12-09T07:17:36.814Z,98402.27
2018-12-09T07:20:06.919Z,98394.20
2018-12-09T07:22:35.717Z,98392.18
2018-12-09T07:25:04.670Z,98391.13
2018-12-09T07:27:34.018Z,98397.53
2018-12-09T07:30:02.933Z,98397.02
2018-12-09T07:32:32.065Z,98399.16
2018-12-09T07:35:01.261Z,98389.24
2018-12-09T07:37:30.284Z,98394.56
2018-12-09T07:39:59.499Z,98391.13
2018-12-09T07:42:28.335Z,98401.08
2018-12-09T07:44:57.087Z,98411.39
2018-12-09T07:47:25.952Z,98401.19
2018-12-09T07:49:54.921Z,98408.43
2018-12-09T07:52:23.677Z,98414.73
2018-12-09T07:54:52.420Z,98416.86
2018-12-09T07:57:21.800Z,98420.88
2018-12-09T07:59:50.594Z,98418.39
2018-12-09T08:02:19.373Z,98416.98
2018-12-09T08:04:48.317Z,98423.59
2018-12-09T08:07:17.467Z,98418.75
2018-12-09T08:09:46.488Z,98427.98
2018-12-09T08:12:15.259Z,98432.36
2018-12-09T08:14:43.927Z,98424.44
2018-12-09T08:17:12.738Z,98427.15
2018-12-09T08:19:41.573Z,98424.07
2018-12-09T08:22:10.401Z,98426.67
2018-12-09T08:24:39.115Z,98432.50
2018-12-09T08:27:07.942Z,98398.31
2018-12-09T08:29:36.690Z,98432.60
2018-12-09T08:32:05.510Z,98428.80
2018-12-09T08:34:34.139Z,98431.52
2018-12-09T08:37:02.877Z,98430.92
2018-12-09T08:39:31.566Z,98434.83
2018-12-09T08:42:00.277Z,98432.34
2018-12-09T08:44:28.971Z,98436.34
2018-12-09T08:46:57.709Z,98433.18
2018-12-09T08:49:26.614Z,98435.30
2018-12-09T08:51:55.415Z,98431.15
2018-12-09T08:54:24.113Z,98440.17
2018-12-09T08:56:52.901Z,98443.81
2018-12-09T08:59:21.591Z,98438.86
2018-12-09T09:01:50.356Z,98447.98
2018-12-09T09:04:19.136Z,98446.00
2018-12-09T09:06:47.782Z,98445.17
2018-12-09T09:09:22.809Z,98446.84
2018-12-09T09:11:51.650Z,98451.58
2018-12-09T09:14:20.744Z,98447.42
2018-12-09T09:16:49.743Z,98450.14
2018-12-09T09:19:18.680Z,98448.41
2018-12-09T09:21:47.412Z,98448.05
2018-12-09T09:24:16.188Z,98448.05
2018-12-09T09:26:45.023Z,98443.30
2018-12-09T09:29:14.034Z,98454.78
2018-12-09T09:31:43.376Z,98449.83
2018-12-09T09:34:12.068Z,98449.23
2018-12-09T09:36:40.672Z,98449.46
2018-12-09T09:39:09.472Z,98450.77
2018-12-09T09:41:38.358Z,98445.34
2018-12-09T09:44:07.452Z,98440.59
2018-12-09T09:46:36.453Z,98440.34
2018-12-09T09:49:05.260Z,98438.83
2018-12-09T09:51:34.091Z,98436.11
2018-12-09T09:54:02.733Z,98432.89
2018-12-09T09:56:31.585Z,98439.30
2018-12-09T09:59:00.370Z,98442.16
2018-12-09T10:01:29.333Z,98441.12
2018-12-09T10:03:58.387Z,98446.08
2018-12-09T10:06:27.590Z,98441.33
2018-12-09T10:08:56.791Z,98442.89
2018-12-09T10:11:25.823Z,98442.78
2018-12-09T10:13:54.604Z,98450.92
2018-12-09T10:16:23.404Z,98448.10
2018-12-09T10:18:52.361Z,98450.23
2018-12-09T10:21:21.086Z,98446.91
2018-12-09T10:23:50.023Z,98452.34
2018-12-09T10:26:18.946Z,98449.88
2018-12-09T10:28:47.717Z,98450.92
2018-12-09T10:31:16.633Z,98459.52
2018-12-09T10:33:45.475Z,98464.16
2018-12-09T10:36:14.590Z,98458.78
2018-12-09T10:38:43.294Z,98454.41
2018-12-09T10:41:12.157Z,98439.53
2018-12-09T10:43:41.373Z,98460.61
2018-12-09T10:46:10.251Z,98460.81
2018-12-09T10:48:38.988Z,98458.88
2018-12-09T10:51:08.139Z,98456.62
2018-12-09T10:53:36.983Z,98455.84
2018-12-09T10:56:05.812Z,98454.83
2018-12-09T10:58:34.483Z,98448.27
2018-12-09T11:01:09.797Z,98449.10
2018-12-09T11:03:38.504Z,98456.18
2018-12-09T11:06:07.333Z,98451.64
2018-12-09T11:08:36.079Z,98453.65
2018-12-09T11:11:04.824Z,98453.28
2018-12-09T11:13:33.548Z,98458.86
2018-12-09T11:17:04.932Z,98450.58
2018-12-09T11:19:33.985Z,98450.70
2018-12-09T11:22:02.785Z,98446.50
2018-12-09T11:24:31.688Z,98446.73
2018-12-09T11:27:00.682Z,98444.02
2018-12-09T11:29:29.687Z,98444.76
2018-12-09T11:31:58.869Z,98442.28
2018-12-09T11:34:27.722Z,98447.85
2018-12-09T11:36:56.571Z,98449.05
2018-12-09T11:39:25.276Z,98451.08
2018-12-09T11:41:54.275Z,98452.98
2018-12-09T11:44:23.419Z,98446.83
2018-12-09T11:46:52.560Z,98445.90
2018-12-09T11:49:21.630Z,98442.72
2018-12-09T11:51:50.360Z,98444.86
2018-12-09T11:54:19.308Z,98444.52
2018-12-09T11:56:47.976Z,98454.48
2018-12-09T11:59:17.366Z,98452.83
2018-12-09T12:01:46.352Z,98454.86
2018-12-09T12:04:15.069Z,98457.83
2018-12-09T12:06:43.945Z,98454.55
2018-12-09T12:09:13.050Z,98457.17
2018-12-09T12:11:41.932Z,98455.77
2018-12-09T12:14:10.713Z,98463.95
2018-12-09T12:16:39.819Z,98462.05
2018-12-09T12:19:08.716Z,98461.37
2018-12-09T12:21:37.718Z,98466.48
2018-12-09T12:24:06.639Z,98465.44
2018-12-09T12:26:35.560Z,98471.13
2018-12-09T12:29:04.939Z,98472.08
2018-12-09T12:31:33.660Z,98479.06
2018-12-09T12:34:02.439Z,98473.86
2018-12-09T12:36:31.169Z,98485.84
2018-12-09T12:39:00.143Z,98486.42
2018-12-09T12:41:29.055Z,98481.94
2018-12-09T12:43:57.871Z,98487.98
2018-12-09T12:46:26.838Z,98484.80
2018-12-09T12:48:55.692Z,98477.67
2018-12-09T12:51:24.421Z,98480.06
2018-12-09T12:53:53.207Z,98485.06
2018-12-09T12:56:22.236Z,98485.54
2018-12-09T12:58:50.902Z,98483.88
2018-12-09T13:01:19.547Z,98484.49
2018-12-09T13:03:48.221Z,98487.20
2018-12-09T13:06:17.596Z,98489.34
2018-12-09T13:08:46.545Z,98487.20
2018-12-09T13:11:15.521Z,98496.80
2018-12-09T13:13:44.348Z,98493.83
2018-12-09T13:16:13.065Z,98500.61
2018-12-09T13:18:41.660Z,98496.45
2018-12-09T13:21:10.544Z,98489.45
2018-12-09T13:23:39.360Z,98495.77
2018-12-09T13:26:08.227Z,98503.11
2018-12-09T13:28:37.255Z,98502.28
2018-12-09T13:31:06.383Z,98501.55
2018-12-09T13:33:35.408Z,98500.98
2018-12-09T13:36:04.671Z,98505.58
2018-12-09T13:38:33.343Z,98502.03
2018-12-09T13:41:02.076Z,98510.80
2018-12-09T13:43:30.889Z,98511.16
2018-12-09T13:45:59.577Z,98510.22
2018-12-09T13:48:28.212Z,98512.35
2018-12-09T13:50:56.915Z,98510.00
2018-12-09T13:53:25.939Z,98519.83
2018-12-09T13:55:55.060Z,98518.88
2018-12-09T13:58:23.709Z,98522.94
2018-12-09T14:00:52.591Z,98533.73
2018-12-09T14:03:21.539Z,98539.27
2018-12-09T14:05:50.229Z,98543.91
2018-12-09T14:08:18.902Z,98538.44
2018-12-09T14:10:47.707Z,98546.09
2018-12-09T14:13:16.442Z,98545.72
2018-12-09T14:15:45.271Z,98546.19
2018-12-09T14:18:13.902Z,98547.02
2018-12-09T14:20:42.678Z,98545.35
2018-12-09T14:23:11.430Z,98547.48
2018-12-09T14:25:40.451Z,98553.64
2018-12-09T14:28:09.827Z,98548.09
2018-12-09T14:30:38.603Z,98552.79
2018-12-09T14:33:07.318Z,98562.16
2018-12-09T14:35:35.931Z,98562.00
2018-12-09T14:38:04.788Z,98565.70
2018-12-09T14:40:33.576Z,98568.43
2018-12-09T14:43:02.249Z,98572.81
2018-12-09T14:45:31.055Z,98572.22
2018-12-09T14:47:59.761Z,98571.13
2018-12-09T14:50:28.571Z,98576.20
2018-12-09T14:52:57.273Z,98586.27
2018-12-09T14:55:26.112Z,98579.55
2018-12-09T14:57:55.008Z,98581.06
2018-12-09T15:00:24.921Z,98585.23
2018-12-09T15:02:53.795Z,98585.44
2018-12-09T15:05:22.852Z,98585.17
2018-12-09T15:07:51.551Z,98587.45
2018-12-09T15:10:20.226Z,98592.78
2018-12-09T15:12:49.080Z,98594.17
2018-12-09T15:15:17.930Z,98602.25
2018-12-09T15:17:46.948Z,98594.90
2018-12-09T15:20:15.886Z,98598.75
2018-12-09T15:22:44.863Z,98595.67
2018-12-09T15:25:13.937Z,98604.69
2018-12-09T15:27:43.108Z,98600.66
2018-12-09T15:30:11.862Z,98601.23
2018-12-09T15:32:40.756Z,98595.34
2018-12-09T15:35:09.682Z,98594.84
2018-12-09T15:37:38.513Z,98593.59
2018-12-09T15:40:07.534Z,98600.21
2018-12-09T15:42:36.338Z,98598.91
2018-12-09T15:45:05.674Z,98606.56
2018-12-09T15:47:34.368Z,98606.63
2018-12-09T15:50:03.081Z,98608.38
2018-12-09T15:52:31.809Z,98603.66
2018-12-09T15:55:00.564Z,98616.21
2018-12-09T15:57:29.437Z,98618.72
2018-12-09T15:59:58.157Z,98623.09
2018-12-09T16:02:28.198Z,98626.30
2018-12-09T16:04:57.436Z,98627.26
2018-12-09T16:07:26.199Z,98628.80
2018-12-09T16:09:54.995Z,98633.30
2018-12-09T16:12:23.873Z,98632.24
2018-12-09T16:14:52.547Z,98637.92
2018-12-09T16:17:21.660Z,98645.77
2018-12-09T16:19:50.319Z,98646.23
2018-12-09T16:22:19.049Z,98647.44
2018-12-09T16:24:48.063Z,98515.50
2018-12-09T16:27:16.741Z,98656.22
2018-12-09T16:29:45.360Z,98655.28
2018-12-09T16:32:13.929Z,98661.49
2018-12-09T16:34:42.685Z,98663.76
2018-12-09T16:37:11.406Z,98667.87
2018-12-09T16:39:40.118Z,98675.62
2018-12-09T16:42:09.047Z,98675.98
2018-12-09T16:44:37.876Z,98680.03
2018-12-09T16:47:06.185Z,98683.44
2018-12-09T16:49:34.866Z,98683.23
2018-12-09T16:52:03.480Z,98685.16
2018-12-09T16:54:32.132Z,98686.33
2018-12-09T16:57:00.786Z,98689.87
2018-12-09T16:59:29.611Z,98696.66
2018-12-09T17:01:58.305Z,98691.08
2018-12-09T17:04:27.128Z,98692.85
2018-12-09T17:06:56.208Z,98674.39
2018-12-09T17:09:25.274Z,98702.97
2018-12-09T17:11:54.159Z,98706.36
2018-12-09T17:14:23.108Z,98704.64
2018-12-09T17:16:52.035Z,98708.89
2018-12-09T17:19:20.873Z,98712.96
2018-12-09T17:21:49.799Z,98715.91
2018-12-09T17:24:18.579Z,98719.77
2018-12-09T17:26:47.261Z,98721.14
2018-12-09T17:29:16.156Z,98723.69
2018-12-09T17:31:44.940Z,98728.37
2018-12-09T17:34:13.666Z,98734.48
2018-12-09T17:36:42.402Z,98733.05
2018-12-09T17:39:11.044Z,98740.66
2018-12-09T17:41:39.820Z,98731.19
2018-12-09T17:44:08.526Z,98733.39
2018-12-09T17:46:37.313Z,98736.78
2018-12-09T17:49:06.275Z,98734.22
2018-12-09T17:51:35.165Z,98738.80
2018-12-09T17:54:04.117Z,98735.02
2018-12-09T17:56:32.943Z,98738.09
2018-12-09T17:59:01.665Z,98744.23
2018-12-09T18:01:30.376Z,98746.66
2018-12-09T18:04:00.640Z,98745.53
2018-12-09T18:06:30.122Z,98751.11
2018-12-09T18:08:59.315Z,98743.91
2018-12-09T18:11:28.297Z,98745.75
2018-12-09T18:13:57.451Z,98747.05
2018-12-09T18:16:26.490Z,98763.39
2018-12-09T18:18:55.464Z,98754.08
2018-12-09T18:21:24.619Z,98754.31
2018-12-09T18:23:53.755Z,98752.72
2018-12-09T18:26:22.877Z,98753.55
2018-12-09T18:28:51.996Z,98755.09
2018-12-09T18:31:22.098Z,98759.59
2018-12-09T18:33:51.255Z,98767.45
2018-12-09T18:36:20.419Z,98781.59
2018-12-09T18:38:50.086Z,98764.89
2018-12-09T18:41:19.136Z,98762.28
2018-12-09T18:43:48.482Z,98763.12
2018-12-09T18:46:17.888Z,98765.16
2018-12-09T18:48:47.206Z,98776.15
2018-12-09T18:51:16.375Z,98777.25
2018-12-09T18:53:45.774Z,98782.50
2018-12-09T18:56:15.135Z,98637.53
2018-12-09T18:58:44.471Z,98783.34
2018-12-09T19:01:14.466Z,98773.28
2018-12-09T19:03:43.645Z,98788.13
2018-12-09T19:06:12.939Z,98785.78
2018-12-09T19:08:43.071Z,98791.60
2018-12-09T19:11:13.169Z,98796.92
2018-12-09T19:13:42.435Z,98793.38
2018-12-09T19:16:11.794Z,98801.09
2018-12-09T19:18:41.071Z,98803.03
2018-12-09T19:21:10.302Z,98806.81
2018-12-09T19:23:39.451Z,98811.20
2018-12-09T19:26:08.656Z,98824.13
2018-12-09T19:28:37.791Z,98815.55
2018-12-09T19:31:07.093Z,98825.44
2018-12-09T19:33:36.378Z,98824.41
2018-12-09T19:36:05.635Z,98827.48
2018-12-09T19:38:40.177Z,98825.97
2018-12-09T19:41:06.240Z,98826.74
2018-12-09T19:43:35.423Z,98823.62
2018-12-09T19:46:05.004Z,98820.24
2018-12-09T19:48:34.322Z,98822.28
2018-12-09T19:51:03.759Z,98828.57
2018-12-09T19:53:32.813Z,98827.69
2018-12-09T19:56:02.152Z,98826.86
2018-12-09T19:58:31.344Z,98833.38
2018-12-09T20:01:00.566Z,98835.61
2018-12-09T20:03:29.729Z,98832.77
2018-12-09T20:05:58.974Z,98836.35
2018-12-09T20:08:28.246Z,98839.80
2018-12-09T20:10:57.456Z,98841.47
2018-12-09T20:13:26.699Z,98847.25
2018-12-09T20:15:56.174Z,98845.34
2018-12-09T20:18:25.512Z,98852.05
2018-12-09T20:20:56.088Z,98846.73
2018-12-09T20:23:25.736Z,98850.84
2018-12-09T20:25:54.962Z,98857.06
2018-12-09T20:28:24.077Z,98858.19
2018-12-09T20:30:53.244Z,98856.59
2018-12-09T20:33:22.551Z,98863.82
2018-12-09T20:35:51.778Z,98868.66
2018-12-09T20:38:20.991Z,98867.73
2018-12-09T20:40:50.294Z,98870.80
2018-12-09T20:43:19.560Z,98878.99
2018-12-09T20:45:49.025Z,98879.46
2018-12-09T20:48:18.260Z,98882.71
2018-12-09T20:50:47.491Z,98880.10
2018-12-09T20:53:16.721Z,98882.81
2018-12-09T20:55:45.975Z,98891.09
2018-12-09T20:58:15.178Z,98890.77
2018-12-09T21:00:44.333Z,98890.36
2018-12-09T21:03:13.361Z,98892.91
2018-12-09T21:05:42.505Z,98893.55
2018-12-09T21:08:11.453Z,98900.44
2018-12-09T21:18:07.587Z,98896.20
2018-12-09T21:20:36.716Z,98905.43
2018-12-09T21:23:05.489Z,98901.98
2018-12-09T21:25:34.302Z,98908.36
2018-12-09T21:28:03.624Z,98907.16
2018-12-09T21:30:32.357Z,98905.56
2018-12-09T21:33:01.765Z,98907.33
2018-12-09T21:35:31.223Z,98909.47
2018-12-09T21:38:00.892Z,98913.72
2018-12-09T21:40:30.412Z,98917.30
2018-12-09T21:42:59.334Z,98917.77
2018-12-09T21:45:28.294Z,98929.22
2018-12-09T21:47:57.245Z,98932.30
2018-12-09T21:50:26.029Z,98939.75
2018-12-09T21:52:54.888Z,98947.10
2018-12-09T21:55:23.888Z,98955.30
2018-12-09T21:57:53.165Z,98963.25
2018-12-09T22:00:22.424Z,98964.28
2018-12-09T22:02:51.683Z,98963.02
2018-12-09T22:05:20.581Z,98965.66
2018-12-09T22:07:49.557Z,98966.50
2018-12-09T22:10:18.345Z,98966.38
2018-12-09T22:12:47.055Z,98964.98
2018-12-09T22:15:15.727Z,98972.15
2018-12-09T22:17:44.613Z,98967.59
2018-12-09T22:20:14.388Z,98971.28
2018-12-09T22:22:43.538Z,98968.21
2018-12-09T22:25:12.543Z,98973.23
2018-12-09T22:27:41.464Z,98975.38
2018-12-09T22:30:10.826Z,98980.00
2018-12-09T22:32:39.594Z,98973.61
2018-12-09T22:35:08.800Z,98978.81
2018-12-09T22:37:37.571Z,98980.13
2018-12-09T22:41:10.196Z,98983.38
2018-12-09T22:43:39.219Z,98983.09
2018-12-09T22:46:07.910Z,98985.98
2018-12-09T22:48:36.884Z,98984.41
2018-12-09T22:51:05.801Z,98991.20
2018-12-09T22:53:34.881Z,98996.47
2018-12-09T22:56:04.077Z,98998.20
2018-12-09T22:58:32.851Z,98994.85
2018-12-09T23:01:06.797Z,98998.54
2018-12-09T23:03:35.540Z,99004.13
2018-12-09T23:06:04.303Z,99012.13
2018-12-09T23:08:32.991Z,99006.33
2018-12-09T23:11:01.729Z,99010.66
2018-12-09T23:13:30.490Z,99016.25
2018-12-09T23:15:59.196Z,99010.47
2018-12-09T23:18:28.326Z,99014.29
2018-12-09T23:20:57.162Z,99014.53
2018-12-09T23:23:25.976Z,99024.41
2018-12-09T23:25:54.812Z,99022.07
2018-12-09T23:28:23.513Z,99019.83
2018-12-09T23:30:52.271Z,99018.67
2018-12-09T23:33:21.000Z,99024.64
2018-12-09T23:35:49.944Z,99030.59
2018-12-09T23:38:18.631Z,99032.23
2018-12-09T23:40:47.269Z,99026.69
2018-12-09T23:43:15.886Z,99033.30
2018-12-09T23:45:45.105Z,99036.06
2018-12-09T23:48:13.901Z,99029.16
2018-12-09T23:50:42.782Z,99032.73
2018-12-09T23:53:11.576Z,99031.31
2018-12-09T23:55:40.446Z,99036.42
2018-12-09T23:58:09.190Z,99038.01
